createdAt,value
2022-09-27T00:02:16.735Z,21.90
2022-09-27T00:12:22.499Z,20.70
2022-09-27T00:22:29.449Z,23.60
2022-09-27T00:32:35.197Z,23.50
2022-09-27T00:42:41.098Z,25.50
2022-09-27T00:52:55.258Z,25.20
2022-09-27T01:03:02.112Z,25.00
2022-09-27T01:13:20.394Z,27.10
2022-09-27T01:23:56.752Z,27.60
2022-09-27T01:34:08.691Z,26.30
2022-09-27T01:44:22.255Z,24.70
2022-09-27T01:54:33.958Z,25.00
2022-09-27T02:04:42.650Z,25.20
2022-09-27T02:14:54.002Z,22.30
2022-09-27T02:25:03.734Z,22.90
2022-09-27T02:35:14.861Z,20.70
2022-09-27T02:45:21.813Z,19.30
2022-09-27T02:55:38.731Z,20.70
2022-09-27T03:05:48.752Z,20.00
2022-09-27T03:15:57.031Z,19.60
2022-09-27T03:26:05.180Z,19.10
2022-09-27T03:36:12.573Z,19.40
2022-09-27T03:46:18.324Z,18.50
2022-09-27T03:56:23.942Z,19.30
2022-09-27T04:06:29.706Z,21.00
2022-09-27T04:16:35.617Z,19.80
2022-09-27T04:26:41.574Z,20.10
2022-09-27T04:36:47.286Z,18.70
2022-09-27T04:46:52.963Z,19.90
2022-09-27T04:56:58.785Z,16.10
2022-09-27T05:07:05.094Z,17.60
2022-09-27T05:17:10.862Z,18.60
2022-09-27T05:27:20.296Z,18.20
2022-09-27T05:37:26.023Z,17.50
2022-09-27T05:47:31.633Z,17.00
2022-09-27T05:57:37.169Z,17.20
2022-09-27T06:07:42.811Z,20.10
2022-09-27T06:17:48.487Z,18.70
2022-09-27T06:27:54.596Z,18.20
2022-09-27T06:38:03.657Z,16.90
2022-09-27T06:48:12.589Z,14.70
2022-09-27T06:58:36.178Z,17.00
2022-09-27T07:08:41.756Z,16.10
2022-09-27T07:18:48.708Z,12.70
2022-09-27T07:28:54.422Z,12.10
2022-09-27T07:39:01.284Z,13.50
2022-09-27T07:49:07.036Z,14.50
2022-09-27T07:59:12.628Z,15.80
2022-09-27T08:09:18.439Z,16.30
2022-09-27T08:19:24.159Z,15.10
2022-09-27T08:29:29.756Z,15.90
2022-09-27T08:39:35.601Z,19.90
2022-09-27T08:49:46.750Z,21.00
2022-09-27T09:00:07.215Z,22.90
2022-09-27T09:10:47.106Z,21.10
2022-09-27T09:21:04.667Z,22.40
2022-09-27T09:31:22.045Z,24.50
2022-09-27T09:41:33.682Z,24.30
2022-09-27T09:51:45.349Z,21.90
2022-09-27T10:01:51.273Z,21.20
2022-09-27T10:11:57.268Z,20.70
2022-09-27T10:22:13.318Z,18.10
2022-09-27T10:32:27.445Z,17.10
2022-09-27T10:42:38.691Z,15.20
2022-09-27T10:52:44.366Z,15.00
2022-09-27T11:02:55.339Z,12.50
2022-09-27T11:13:14.404Z,13.40
2022-09-27T11:23:43.110Z,13.10
2022-09-27T11:33:59.751Z,11.40
2022-09-27T11:44:35.565Z,10.40
2022-09-27T11:54:55.801Z,9.70
2022-09-27T12:05:17.788Z,8.20
2022-09-27T12:15:27.231Z,7.80
2022-09-27T12:25:37.233Z,8.50
2022-09-27T12:35:50.774Z,6.70
2022-09-27T12:46:07.016Z,7.60
2022-09-27T12:56:36.470Z,6.90
2022-09-27T13:06:59.130Z,6.70
2022-09-27T13:17:05.063Z,6.20
2022-09-27T13:27:38.648Z,6.40
2022-09-27T13:37:55.379Z,6.60
2022-09-27T13:48:02.899Z,5.70
2022-09-27T13:58:22.013Z,5.40
2022-09-27T14:08:33.526Z,5.10
2022-09-27T14:18:50.687Z,6.00
2022-09-27T14:28:56.605Z,6.00
2022-09-27T14:39:02.815Z,10.80
2022-09-27T14:49:23.129Z,9.40
2022-09-27T14:59:33.338Z,10.60
2022-09-27T15:09:40.639Z,10.10
2022-09-27T15:19:59.252Z,11.20
2022-09-27T15:30:05.701Z,10.80
2022-09-27T15:40:55.710Z,12.70
2022-09-27T15:51:03.317Z,12.10
2022-09-27T16:01:09.391Z,12.70
2022-09-27T16:11:17.862Z,3.90
2022-09-27T16:21:23.529Z,4.00
2022-09-27T16:31:29.262Z,4.30
2022-09-27T16:41:35.834Z,3.10
2022-09-27T16:51:58.890Z,3.10
2022-09-27T17:02:05.480Z,2.90
2022-09-27T17:12:12.042Z,0.70
2022-09-27T17:22:18.124Z,0.90
2022-09-27T17:32:24.743Z,0.80
2022-09-27T17:42:30.579Z,1.20
2022-09-27T17:52:36.441Z,1.70
2022-09-27T18:02:42.271Z,3.90
2022-09-27T18:12:47.989Z,4.10
2022-09-27T18:22:54.035Z,9.90
2022-09-27T18:32:59.795Z,8.20
2022-09-27T18:43:05.599Z,10.20
2022-09-27T18:53:11.282Z,8.60
2022-09-27T19:03:17.417Z,8.50
2022-09-27T19:13:27.808Z,5.40
2022-09-27T19:23:34.631Z,13.80
2022-09-27T19:33:40.502Z,10.50
2022-09-27T19:43:51.188Z,16.80
2022-09-27T19:53:56.992Z,13.10
2022-09-27T20:04:03.273Z,6.30
2022-09-27T20:14:09.216Z,8.00
2022-09-27T20:24:14.911Z,8.50
2022-09-27T20:34:20.918Z,10.30
2022-09-27T20:44:26.567Z,11.20
2022-09-27T20:54:33.060Z,10.00
2022-09-27T21:04:38.705Z,11.50
2022-09-27T21:14:44.398Z,9.90
2022-09-27T21:24:50.140Z,9.30
2022-09-27T21:34:56.003Z,8.60
2022-09-27T21:45:01.718Z,6.20
2022-09-27T21:55:09.038Z,5.30
2022-09-27T22:05:14.952Z,4.80
2022-09-27T22:15:22.245Z,5.20
2022-09-27T22:25:29.341Z,5.50
2022-09-27T22:35:35.131Z,7.10
2022-09-27T22:45:40.868Z,7.00
2022-09-27T22:55:57.425Z,6.10
2022-09-27T23:06:07.486Z,6.80
2022-09-27T23:16:14.595Z,7.30
2022-09-27T23:26:24.085Z,6.60
2022-09-27T23:36:30.097Z,7.00
2022-09-27T23:46:37.426Z,5.80
2022-09-27T23:56:43.437Z,5.00
